sensor_id;sensor_type;location;lat;lon;timestamp;P1;durP1;ratioP1;P2;durP2;ratioP2
61704;SDS011;47627;48.078;11.522;2023-08-01T08:13:08;5.15;;;4.07;;
61704;SDS011;47627;48.078;11.522;2023-08-01T08:15:33;6.07;;;3.80;;
61704;SDS011;47627;48.078;11.522;2023-08-01T08:18:00;5.22;;;3.65;;
61704;SDS011;47627;48.078;11.522;2023-08-01T08:20:26;7.47;;;3.45;;
61704;SDS011;47627;48.078;11.522;2023-08-01T08:22:51;6.88;;;3.40;;
61704;SDS011;47627;48.078;11.522;2023-08-01T08:25:16;6.85;;;3.70;;
61704;SDS011;47627;48.078;11.522;2023-08-01T08:27:42;5.55;;;3.40;;
61704;SDS011;47627;48.078;11.522;2023-08-01T08:30:07;3.83;;;3.30;;
61704;SDS011;47627;48.078;11.522;2023-08-01T08:32:33;5.75;;;3.75;;
61704;SDS011;47627;48.078;11.522;2023-08-01T08:34:58;5.70;;;3.58;;
61704;SDS011;47627;48.078;11.522;2023-08-01T08:37:23;5.32;;;3.75;;
61704;SDS011;47627;48.078;11.522;2023-08-01T08:39:48;6.50;;;3.55;;
61704;SDS011;47627;48.078;11.522;2023-08-01T08:42:13;5.75;;;3.47;;
61704;SDS011;47627;48.078;11.522;2023-08-01T08:44:43;5.15;;;3.40;;
61704;SDS011;47627;48.078;11.522;2023-08-01T08:47:08;6.53;;;3.70;;
61704;SDS011;47627;48.078;11.522;2023-08-01T08:49:35;5.10;;;3.30;;
61704;SDS011;47627;48.078;11.522;2023-08-01T08:52:03;6.38;;;3.80;;
61704;SDS011;47627;48.078;11.522;2023-08-01T08:54:29;5.97;;;3.95;;
61704;SDS011;47627;48.078;11.522;2023-08-01T08:56:55;5.45;;;3.85;;
61704;SDS011;47627;48.078;11.522;2023-08-01T08:59:20;4.68;;;3.58;;
61704;SDS011;47627;48.078;11.522;2023-08-01T09:01:46;6.75;;;3.83;;
61704;SDS011;47627;48.078;11.522;2023-08-01T10:30:36;6.47;;;3.70;;
61704;SDS011;47627;48.078;11.522;2023-08-01T10:33:02;10.98;;;3.92;;
61704;SDS011;47627;48.078;11.522;2023-08-01T10:35:34;4.93;;;3.85;;
61704;SDS011;47627;48.078;11.522;2023-08-01T10:38:10;8.00;;;3.78;;
61704;SDS011;47627;48.078;11.522;2023-08-01T10:43:00;7.57;;;3.80;;
61704;SDS011;47627;48.078;11.522;2023-08-01T10:45:26;6.55;;;3.67;;
61704;SDS011;47627;48.078;11.522;2023-08-01T10:47:53;5.90;;;3.45;;
61704;SDS011;47627;48.078;11.522;2023-08-01T10:50:18;5.32;;;3.65;;
61704;SDS011;47627;48.078;11.522;2023-08-01T11:17:22;3.55;;;2.20;;
61704;SDS011;47627;48.078;11.522;2023-08-01T11:19:47;5.78;;;2.97;;
61704;SDS011;47627;48.078;11.522;2023-08-01T12:14:38;4.55;;;3.17;;
61704;SDS011;47627;48.078;11.522;2023-08-01T12:17:04;4.10;;;3.30;;
61704;SDS011;47627;48.078;11.522;2023-08-01T12:19:29;3.92;;;3.10;;
61704;SDS011;47627;48.078;11.522;2023-08-01T12:21:54;3.13;;;2.63;;
61704;SDS011;47627;48.078;11.522;2023-08-01T12:24:20;4.50;;;2.80;;
61704;SDS011;47627;48.078;11.522;2023-08-01T12:26:45;4.20;;;2.63;;
61704;SDS011;47627;48.078;11.522;2023-08-01T12:29:10;3.13;;;2.40;;
61704;SDS011;47627;48.078;11.522;2023-08-01T12:31:36;4.20;;;2.55;;
61704;SDS011;47627;48.078;11.522;2023-08-01T12:43:11;2.97;;;2.15;;
61704;SDS011;47627;48.078;11.522;2023-08-01T12:45:37;3.55;;;2.25;;
61704;SDS011;47627;48.078;11.522;2023-08-01T12:48:02;2.73;;;2.10;;
61704;SDS011;47627;48.078;11.522;2023-08-01T12:50:27;4.38;;;2.00;;
61704;SDS011;47627;48.078;11.522;2023-08-01T12:52:52;5.90;;;2.10;;
61704;SDS011;47627;48.078;11.522;2023-08-01T12:55:17;2.25;;;2.03;;
61704;SDS011;47627;48.078;11.522;2023-08-01T12:57:46;4.55;;;2.30;;
61704;SDS011;47627;48.078;11.522;2023-08-01T13:00:11;2.15;;;1.95;;
61704;SDS011;47627;48.078;11.522;2023-08-01T13:02:37;2.83;;;2.05;;
61704;SDS011;47627;48.078;11.522;2023-08-01T13:05:03;2.20;;;2.00;;
61704;SDS011;47627;48.078;11.522;2023-08-01T13:07:29;3.97;;;2.38;;
61704;SDS011;47627;48.078;11.522;2023-08-01T13:10:12;2.33;;;1.98;;
61704;SDS011;47627;48.078;11.522;2023-08-01T13:27:38;2.92;;;2.13;;
61704;SDS011;47627;48.078;11.522;2023-08-01T13:30:04;2.28;;;1.80;;
61704;SDS011;47627;48.078;11.522;2023-08-01T13:32:30;2.75;;;1.88;;
61704;SDS011;47627;48.078;11.522;2023-08-01T13:34:55;2.80;;;2.20;;
61704;SDS011;47627;48.078;11.522;2023-08-01T13:37:20;2.22;;;2.00;;
61704;SDS011;47627;48.078;11.522;2023-08-01T13:39:45;3.50;;;2.58;;
61704;SDS011;47627;48.078;11.522;2023-08-01T13:42:11;3.60;;;2.33;;
61704;SDS011;47627;48.078;11.522;2023-08-01T13:44:36;3.85;;;2.53;;
61704;SDS011;47627;48.078;11.522;2023-08-01T13:47:02;2.70;;;2.05;;
61704;SDS011;47627;48.078;11.522;2023-08-01T13:49:28;3.25;;;2.10;;
61704;SDS011;47627;48.078;11.522;2023-08-01T13:51:53;3.22;;;2.03;;
61704;SDS011;47627;48.078;11.522;2023-08-01T13:54:18;3.60;;;2.30;;
61704;SDS011;47627;48.078;11.522;2023-08-01T13:56:44;2.95;;;2.20;;
61704;SDS011;47627;48.078;11.522;2023-08-01T13:59:09;2.88;;;1.70;;
61704;SDS011;47627;48.078;11.522;2023-08-01T14:01:34;2.88;;;1.77;;
61704;SDS011;47627;48.078;11.522;2023-08-01T14:04:00;2.30;;;1.98;;
61704;SDS011;47627;48.078;11.522;2023-08-01T14:06:26;2.42;;;1.90;;
61704;SDS011;47627;48.078;11.522;2023-08-01T14:08:51;2.58;;;1.90;;
61704;SDS011;47627;48.078;11.522;2023-08-01T14:11:16;3.33;;;1.60;;
61704;SDS011;47627;48.078;11.522;2023-08-01T14:21:58;2.50;;;2.15;;
61704;SDS011;47627;48.078;11.522;2023-08-01T14:35:42;1.67;;;1.50;;
61704;SDS011;47627;48.078;11.522;2023-08-01T14:45:41;3.70;;;1.77;;
61704;SDS011;47627;48.078;11.522;2023-08-01T14:48:07;2.15;;;1.40;;
61704;SDS011;47627;48.078;11.522;2023-08-01T14:50:37;1.85;;;1.33;;
61704;SDS011;47627;48.078;11.522;2023-08-01T14:53:17;1.80;;;1.35;;
61704;SDS011;47627;48.078;11.522;2023-08-01T14:55:42;1.80;;;1.35;;
61704;SDS011;47627;48.078;11.522;2023-08-01T15:49:55;1.63;;;1.20;;
61704;SDS011;47627;48.078;11.522;2023-08-01T15:52:20;1.92;;;1.30;;
61704;SDS011;47627;48.078;11.522;2023-08-01T15:54:48;1.75;;;1.20;;
61704;SDS011;47627;48.078;11.522;2023-08-01T15:57:14;1.30;;;1.10;;
61704;SDS011;47627;48.078;11.522;2023-08-01T15:59:39;2.55;;;1.10;;
61704;SDS011;47627;48.078;11.522;2023-08-01T16:02:04;2.03;;;1.48;;
61704;SDS011;47627;48.078;11.522;2023-08-01T16:04:30;1.55;;;1.08;;
